Time;durP1;ratioP1;P1;durP2;ratioP2;P2;SDS_P1;SDS_P2;PMS_P1;PMS_P2;Temp;Humidity;BMP_temperature;BMP_pressure;BME280_temperature;BME280_humidity;BME280_pressure;Samples;Min_cycle;Max_cycle;Signal;HPM_P1;HPM_P2
2022/08/02 00:08:54;;;;;;;0.20;0.00;;;28.60;99.90;;;;;;25697805;23;20222;-68
2022/08/02 00:18:58;;;;;;;0.20;0.00;;;28.60;99.90;;;;;;25696994;23;20257;-68
2022/08/02 00:29:04;;;;;;;0.20;0.10;;;28.50;99.90;;;;;;25696924;23;20174;-67
2022/08/02 00:39:08;;;;;;;0.20;0.08;;;28.30;99.90;;;;;;25696505;23;20206;-67
2022/08/02 00:49:33;;;;;;;0.20;0.00;;;28.20;99.90;;;;;;25696600;23;20170;-69
2022/08/02 00:59:38;;;;;;;0.20;0.10;;;28.40;99.90;;;;;;25696262;23;20209;-69
2022/08/02 01:09:45;;;;;;;0.20;0.10;;;28.30;99.90;;;;;;25696691;23;20194;-68
2022/08/02 01:19:57;;;;;;;0.20;0.00;;;28.00;99.90;;;;;;25695237;23;20197;-68
2022/08/02 01:30:05;;;;;;;0.20;0.00;;;27.80;99.90;;;;;;25696397;23;20197;-68
2022/08/02 01:40:12;;;;;;;0.20;0.00;;;27.50;99.90;;;;;;25695685;23;20281;-67
2022/08/02 01:50:21;;;;;;;0.20;0.00;;;27.60;99.90;;;;;;25695351;23;20269;-68
2022/08/02 02:00:29;;;;;;;0.20;0.10;;;27.20;99.90;;;;;;25695550;23;20241;-67
2022/08/02 02:10:38;;;;;;;0.20;0.05;;;26.90;99.90;;;;;;25701407;23;20216;-67
2022/08/02 02:20:43;;;;;;;0.20;0.03;;;26.80;99.90;;;;;;25701853;23;20182;-67
2022/08/02 02:30:52;;;;;;;0.20;0.00;;;26.80;99.90;;;;;;25701463;23;20233;-67
2022/08/02 02:40:58;;;;;;;0.20;0.00;;;26.60;99.90;;;;;;25701544;23;20238;-67
2022/08/02 02:51:05;;;;;;;0.20;0.10;;;26.70;99.90;;;;;;25700607;23;20190;-67
2022/08/02 03:01:29;;;;;;;0.20;0.00;;;26.90;99.90;;;;;;25673404;23;20206;-67
2022/08/02 03:11:56;;;;;;;0.20;0.00;;;26.70;99.90;;;;;;25667256;23;20196;-67
2022/08/02 03:21:59;;;;;;;0.20;0.00;;;27.00;99.90;;;;;;25693746;23;20158;-67
2022/08/02 03:32:05;;;;;;;0.20;0.00;;;27.20;99.90;;;;;;25693795;23;20198;-67
2022/08/02 03:42:10;;;;;;;0.20;0.00;;;27.30;99.90;;;;;;25693731;23;20158;-67
2022/08/02 03:52:20;;;;;;;0.20;0.00;;;27.60;99.90;;;;;;25692448;23;20205;-67
2022/08/02 04:02:24;;;;;;;0.20;0.00;;;27.70;99.90;;;;;;25631041;23;1466381;-67
2022/08/02 04:12:29;;;;;;;0.20;0.00;;;27.80;99.90;;;;;;25697668;23;20205;-67
2022/08/02 04:22:39;;;;;;;0.20;0.00;;;27.70;99.90;;;;;;25696260;23;20185;-68
2022/08/02 04:32:45;;;;;;;0.20;0.00;;;27.70;99.90;;;;;;25669812;23;20190;-66
2022/08/02 04:42:49;;;;;;;0.20;0.00;;;27.70;99.90;;;;;;25670072;23;20182;-65
2022/08/02 04:52:56;;;;;;;0.20;0.00;;;27.60;99.90;;;;;;25695551;23;20190;-66
2022/08/02 05:03:01;;;;;;;0.20;0.05;;;27.70;99.90;;;;;;25694915;23;20276;-66
2022/08/02 05:13:06;;;;;;;0.20;0.00;;;27.60;99.90;;;;;;25694917;23;20205;-66
2022/08/02 05:23:10;;;;;;;0.20;0.00;;;27.70;99.90;;;;;;25694803;23;20688;-67
2022/08/02 05:33:15;;;;;;;0.20;0.00;;;27.80;99.90;;;;;;25693909;23;20242;-68
2022/08/02 05:43:20;;;;;;;0.20;0.00;;;28.10;99.90;;;;;;25698840;23;20170;-68
2022/08/02 05:53:36;;;;;;;0.20;0.00;;;28.30;99.90;;;;;;25675293;23;20186;-69
2022/08/02 06:03:44;;;;;;;0.20;0.00;;;28.60;99.90;;;;;;25700261;23;20201;-68
2022/08/02 06:13:50;;;;;;;0.20;0.00;;;28.80;99.90;;;;;;25699681;23;20296;-67
2022/08/02 06:23:57;;;;;;;0.20;0.00;;;29.10;99.90;;;;;;25699193;23;20225;-67
2022/08/02 06:34:03;;;;;;;0.20;0.10;;;28.90;99.90;;;;;;25671396;23;20198;-67
2022/08/02 06:44:07;;;;;;;0.20;0.00;;;28.90;99.90;;;;;;25697294;23;20190;-66
2022/08/02 06:54:33;;;;;;;0.20;0.00;;;29.10;99.90;;;;;;25696545;23;20182;-68
2022/08/02 07:04:36;;;;;;;0.20;0.10;;;29.10;99.90;;;;;;25695424;23;20202;-67
2022/08/02 07:14:41;;;;;;;0.20;0.00;;;29.40;99.90;;;;;;25695305;23;20193;-67
2022/08/02 07:24:45;;;;;;;0.20;0.00;;;29.50;99.90;;;;;;25695471;23;20182;-68
2022/08/02 07:34:51;;;;;;;0.20;0.00;;;29.40;99.90;;;;;;25695602;23;20186;-68
2022/08/02 07:44:57;;;;;;;0.20;0.00;;;29.70;99.90;;;;;;25695556;23;20181;-69
2022/08/02 07:55:03;;;;;;;0.20;0.00;;;29.70;99.90;;;;;;25695079;23;20205;-70
2022/08/02 08:05:07;;;;;;;0.20;0.00;;;29.70;99.90;;;;;;25692149;23;20198;-66
2022/08/02 08:15:13;;;;;;;0.20;0.00;;;29.90;99.90;;;;;;25693789;23;20185;-68
2022/08/02 08:25:16;;;;;;;0.20;0.00;;;30.30;99.90;;;;;;25692760;23;20209;-67
2022/08/02 08:35:23;;;;;;;0.20;0.00;;;30.60;99.90;;;;;;25681916;23;20208;-68
2022/08/02 08:45:26;;;;;;;503.73;122.28;;;30.50;99.90;;;;;;25693314;23;20784;-67
2022/08/02 08:55:33;;;;;;;0.20;0.00;;;30.70;99.90;;;;;;25692639;23;20198;-68
2022/08/02 09:05:39;;;;;;;0.20;0.00;;;30.50;99.90;;;;;;25664845;23;20209;-68
2022/08/02 09:15:45;;;;;;;0.20;0.00;;;30.70;99.90;;;;;;25695516;23;20253;-68
2022/08/02 09:26:00;;;;;;;0.20;0.00;;;30.70;99.90;;;;;;25698483;23;20170;-67
2022/08/02 09:36:12;;;;;;;0.20;0.00;;;30.90;99.90;;;;;;25673409;23;20201;-69
2022/08/02 09:46:17;;;;;;;0.20;0.00;;;31.10;99.90;;;;;;25699530;23;20170;-67
2022/08/02 09:56:39;;;;;;;0.20;0.00;;;31.00;99.90;;;;;;25670706;23;20194;-67
2022/08/02 10:06:44;;;;;;;0.20;0.00;;;31.30;99.90;;;;;;25696197;23;20245;-68
2022/08/02 10:16:49;;;;;;;0.20;0.00;;;31.50;99.90;;;;;;25695441;23;20264;-67
2022/08/02 10:26:54;;;;;;;0.20;0.00;;;31.90;99.90;;;;;;25693074;23;20225;-67
2022/08/02 10:37:02;;;;;;;0.20;0.00;;;32.10;99.90;;;;;;25694535;23;20205;-68
2022/08/02 10:47:24;;;;;;;0.20;0.00;;;31.90;99.90;;;;;;25692151;23;20254;-68
2022/08/02 10:57:32;;;;;;;0.20;0.00;;;32.00;99.90;;;;;;25669058;23;20209;-67
2022/08/02 11:07:37;;;;;;;0.20;0.00;;;32.60;99.90;;;;;;25667743;23;20202;-68
2022/08/02 11:17:54;;;;;;;0.20;0.00;;;33.10;99.90;;;;;;25692036;23;20260;-68
2022/08/02 11:27:59;;;;;;;0.20;0.00;;;33.50;99.90;;;;;;25691787;23;20197;-67
2022/08/02 11:38:18;;;;;;;0.20;0.00;;;33.50;99.90;;;;;;25691545;23;20193;-67
2022/08/02 11:48:33;;;;;;;0.20;0.00;;;34.50;99.90;;;;;;25687789;23;20218;-67
2022/08/02 11:58:39;;;;;;;0.20;0.00;;;34.50;99.90;;;;;;25686305;23;20205;-66
2022/08/02 12:08:44;;;;;;;0.20;0.00;;;35.00;99.90;;;;;;25689891;23;20197;-67
2022/08/02 12:29:30;;;;;;;0.20;0.00;;;35.40;99.90;;;;;;25651701;23;20209;-66
2022/08/02 12:39:55;;;;;;;0.20;0.00;;;36.10;99.90;;;;;;25687704;23;20186;-67
2022/08/02 12:50:12;;;;;;;0.20;0.00;;;36.40;99.90;;;;;;25685701;23;20173;-68
2022/08/02 13:00:26;;;;;;;0.20;0.00;;;37.80;99.90;;;;;;25686370;23;20206;-68
2022/08/02 13:10:30;;;;;;;0.20;0.00;;;37.70;99.90;;;;;;25685390;23;20182;-67
2022/08/02 13:20:35;;;;;;;0.20;0.00;;;37.50;99.90;;;;;;25687801;23;20182;-67
2022/08/02 13:30:47;;;;;;;0.20;0.00;;;37.40;99.90;;;;;;25686810;23;20193;-68
2022/08/02 13:41:12;;;;;;;0.20;0.00;;;36.80;99.90;;;;;;25685342;23;20186;-67
2022/08/02 13:51:16;;;;;;;0.20;0.00;;;36.80;99.90;;;;;;25686624;23;20213;-66
2022/08/02 14:01:21;;;;;;;0.20;0.00;;;36.40;99.90;;;;;;25675775;23;20256;-67
2022/08/02 14:11:25;;;;;;;0.20;0.00;;;37.30;99.90;;;;;;25693302;23;20170;-65
2022/08/02 14:21:31;;;;;;;0.20;0.00;;;36.90;99.90;;;;;;25690237;23;20245;-67
2022/08/02 14:31:49;;;;;;;0.20;0.00;;;37.60;99.90;;;;;;25691270;23;20170;-67
2022/08/02 14:41:54;;;;;;;0.20;0.00;;;37.70;99.90;;;;;;25689770;23;20313;-66
2022/08/02 14:52:03;;;;;;;0.20;0.00;;;38.10;99.90;;;;;;25688312;23;20193;-66
2022/08/02 15:02:08;;;;;;;0.20;0.00;;;38.00;99.90;;;;;;25688350;23;20272;-67
2022/08/02 15:12:16;;;;;;;0.20;0.00;;;37.70;99.90;;;;;;25691050;23;20262;-68
2022/08/02 15:22:22;;;;;;;0.20;0.00;;;38.10;99.90;;;;;;25690233;23;20194;-68
2022/08/02 15:32:26;;;;;;;0.20;0.00;;;37.50;99.90;;;;;;25691651;23;20218;-66
2022/08/02 15:42:32;;;;;;;0.20;0.00;;;36.70;99.90;;;;;;25689031;23;20308;-67
2022/08/02 15:52:36;;;;;;;0.20;0.00;;;35.90;99.90;;;;;;25687352;23;20177;-67
2022/08/02 16:02:41;;;;;;;0.20;0.00;;;35.10;99.90;;;;;;25690348;23;20360;-66
2022/08/02 16:12:45;;;;;;;0.20;0.00;;;34.00;99.90;;;;;;25689117;23;20185;-67
2022/08/02 16:22:50;;;;;;;0.20;0.00;;;33.20;99.90;;;;;;25688849;23;20182;-66
2022/08/02 16:32:54;;;;;;;0.20;0.00;;;32.50;99.90;;;;;;25687987;23;20234;-67
2022/08/02 16:42:59;;;;;;;0.20;0.00;;;32.50;99.90;;;;;;25690607;23;20217;-68
2022/08/02 16:53:04;;;;;;;0.20;0.00;;;32.70;99.90;;;;;;25690642;23;20182;-69
2022/08/02 17:03:11;;;;;;;0.20;0.00;;;32.60;99.90;;;;;;25664433;23;20197;-68
2022/08/02 17:13:16;;;;;;;0.20;0.00;;;32.40;99.90;;;;;;25687585;23;20193;-68
2022/08/02 17:23:22;;;;;;;0.20;0.00;;;32.80;99.90;;;;;;25646310;23;20181;-67
2022/08/02 17:33:46;;;;;;;0.20;0.00;;;34.30;99.90;;;;;;25691705;23;20250;-67
2022/08/02 17:43:51;;;;;;;0.20;0.00;;;35.10;99.90;;;;;;25698751;23;20177;-67
2022/08/02 17:53:55;;;;;;;0.20;0.00;;;34.50;99.90;;;;;;25699521;23;20182;-68
2022/08/02 18:04:03;;;;;;;0.20;0.00;;;34.20;99.90;;;;;;25697557;23;20202;-67
2022/08/02 18:14:07;;;;;;;0.20;0.00;;;32.40;99.90;;;;;;25670907;23;20206;-66
2022/08/02 18:24:13;;;;;;;0.20;0.00;;;30.90;99.90;;;;;;25670438;23;20289;-67
2022/08/02 18:34:19;;;;;;;0.20;0.08;;;30.10;99.90;;;;;;25696696;23;20186;-68
2022/08/02 18:44:28;;;;;;;0.20;0.00;;;29.70;99.90;;;;;;25696900;23;20170;-69
2022/08/02 18:54:33;;;;;;;0.20;0.00;;;29.40;99.90;;;;;;25696730;23;20225;-67
2022/08/02 19:04:42;;;;;;;0.20;0.00;;;29.50;99.90;;;;;;25670391;23;20256;-68
2022/08/02 19:14:49;;;;;;;0.20;0.00;;;29.50;99.90;;;;;;25671054;23;20201;-67
2022/08/02 19:24:56;;;;;;;0.20;0.00;;;29.30;99.90;;;;;;25695340;23;20178;-67
2022/08/02 19:35:04;;;;;;;0.20;0.00;;;29.10;99.90;;;;;;25695385;23;20177;-67
2022/08/02 19:45:29;;;;;;;0.20;0.00;;;29.00;99.90;;;;;;25695097;23;20158;-68
2022/08/02 19:55:53;;;;;;;0.20;0.00;;;28.90;99.90;;;;;;25695317;23;20229;-68
2022/08/02 20:06:06;;;;;;;0.20;0.00;;;28.70;99.90;;;;;;25692600;23;20204;-68
2022/08/02 20:16:12;;;;;;;0.20;0.00;;;28.80;99.90;;;;;;25667853;23;20378;-68
2022/08/02 20:26:31;;;;;;;0.20;0.10;;;28.80;99.90;;;;;;25667783;23;20166;-68
2022/08/02 20:36:38;;;;;;;0.20;0.00;;;28.60;99.90;;;;;;25694521;23;20206;-68
2022/08/02 20:46:43;;;;;;;0.20;0.00;;;28.70;99.90;;;;;;25695528;23;20162;-67
2022/08/02 20:56:47;;;;;;;0.20;0.00;;;28.20;99.90;;;;;;25695737;23;20225;-69
2022/08/02 21:06:57;;;;;;;0.20;0.00;;;28.00;99.90;;;;;;25693995;23;20244;-67
2022/08/02 21:17:07;;;;;;;0.20;0.00;;;28.00;99.90;;;;;;25704880;23;20192;-68
2022/08/02 21:27:12;;;;;;;0.20;0.00;;;27.70;99.90;;;;;;25703881;23;20173;-68
2022/08/02 21:37:36;;;;;;;0.20;0.00;;;27.50;99.90;;;;;;25702234;23;20213;-69
2022/08/02 21:47:48;;;;;;;0.20;0.00;;;27.70;99.90;;;;;;25702445;23;20180;-69
2022/08/02 21:57:53;;;;;;;0.20;0.00;;;27.60;99.90;;;;;;25701908;23;20194;-69
2022/08/02 22:07:59;;;;;;;0.20;0.10;;;27.60;99.90;;;;;;25702661;23;20213;-69
2022/08/02 22:18:02;;;;;;;0.20;0.00;;;27.70;99.90;;;;;;25702637;23;20197;-68
2022/08/02 22:28:10;;;;;;;0.20;0.00;;;27.30;99.90;;;;;;25701229;23;20186;-68
2022/08/02 22:38:33;;;;;;;0.20;0.00;;;27.20;99.90;;;;;;25701462;23;20213;-67
2022/08/02 22:48:39;;;;;;;0.20;0.10;;;27.20;99.90;;;;;;25701349;23;20197;-69
2022/08/02 22:58:46;;;;;;;0.20;0.00;;;27.20;99.90;;;;;;25701456;23;20202;-68
2022/08/02 23:09:11;;;;;;;0.20;0.10;;;27.10;99.90;;;;;;25700893;23;20232;-68
2022/08/02 23:29:37;;;;;;;0.20;0.00;;;27.20;99.90;;;;;;25701030;23;20189;-68
2022/08/02 23:39:41;;;;;;;0.20;0.00;;;27.50;99.90;;;;;;25699398;23;20209;-68
2022/08/02 23:49:47;;;;;;;0.20;0.10;;;28.00;99.90;;;;;;25699911;23;20186;-68
2022/08/02 23:59:51;;;;;;;0.20;0.00;;;28.10;99.90;;;;;;25699226;23;20245;-68
